createdAt,value
2022-09-03T00:01:59.189Z,95.20
2022-09-03T00:04:58.497Z,95.20
2022-09-03T00:07:48.007Z,95.10
2022-09-03T00:10:29.976Z,95.20
2022-09-03T00:13:04.168Z,95.20
2022-09-03T00:15:41.004Z,95.20
2022-09-03T00:18:17.293Z,95.40
2022-09-03T00:20:59.646Z,95.40
2022-09-03T00:23:29.939Z,95.60
2022-09-03T00:26:09.182Z,95.60
2022-09-03T00:28:45.740Z,95.70
2022-09-03T00:31:26.799Z,95.60
2022-09-03T00:34:04.012Z,95.70
2022-09-03T00:36:50.317Z,95.60
2022-09-03T00:39:20.534Z,95.70
2022-09-03T00:42:11.611Z,95.70
2022-09-03T00:44:57.247Z,95.90
2022-09-03T00:48:03.119Z,95.90
2022-09-03T00:50:34.228Z,96.10
2022-09-03T00:53:12.828Z,96.00
2022-09-03T00:56:16.314Z,96.10
2022-09-03T00:58:55.751Z,96.30
2022-09-03T01:01:34.187Z,96.30
2022-09-03T01:04:21.678Z,96.30
2022-09-03T01:06:50.000Z,96.50
2022-09-03T01:10:07.133Z,96.40
2022-09-03T01:13:04.995Z,96.70
2022-09-03T01:16:02.250Z,96.70
2022-09-03T01:19:09.185Z,96.70
2022-09-03T01:22:09.116Z,96.90
2022-09-03T01:25:13.542Z,96.80
2022-09-03T01:27:47.469Z,97.00
2022-09-03T01:30:24.379Z,97.00
2022-09-03T01:33:20.529Z,97.10
2022-09-03T01:35:53.685Z,97.60
2022-09-03T01:38:45.836Z,97.30
2022-09-03T01:42:09.387Z,97.50
2022-09-03T01:45:08.494Z,97.60
2022-09-03T01:47:50.592Z,97.50
2022-09-03T01:50:38.482Z,97.80
2022-09-03T01:53:36.772Z,97.70
2022-09-03T01:56:26.045Z,97.80
2022-09-03T01:59:01.325Z,97.80
2022-09-03T02:01:59.030Z,97.80
2022-09-03T02:04:31.001Z,98.00
2022-09-03T02:07:04.250Z,97.90
2022-09-03T02:09:32.778Z,98.00
2022-09-03T02:12:16.100Z,98.00
2022-09-03T02:14:44.823Z,98.20
2022-09-03T02:17:15.626Z,98.30
2022-09-03T02:19:46.316Z,98.30
2022-09-03T02:22:13.796Z,98.40
2022-09-03T02:24:44.348Z,98.70
2022-09-03T02:27:15.106Z,98.50
2022-09-03T02:29:46.741Z,98.70
2022-09-03T02:32:18.823Z,98.60
2022-09-03T02:34:46.621Z,98.80
2022-09-03T02:37:19.788Z,98.80
2022-09-03T02:39:47.155Z,98.90
2022-09-03T02:42:19.018Z,98.90
2022-09-03T02:44:53.096Z,99.00
2022-09-03T02:47:26.569Z,99.10
2022-09-03T02:50:01.162Z,99.10
2022-09-03T02:52:31.691Z,99.20
2022-09-03T02:54:59.061Z,99.20
2022-09-03T02:57:27.670Z,99.20
2022-09-03T02:59:55.601Z,99.20
2022-09-03T03:02:26.555Z,99.20
2022-09-03T03:04:57.485Z,99.30
2022-09-03T03:07:26.204Z,99.30
2022-09-03T03:09:58.737Z,99.40
2022-09-03T03:12:26.657Z,99.50
2022-09-03T03:14:58.619Z,99.50
2022-09-03T03:17:29.935Z,99.50
2022-09-03T03:20:00.664Z,99.60
2022-09-03T03:22:35.170Z,99.50
2022-09-03T03:25:06.160Z,99.60
2022-09-03T03:27:40.142Z,99.70
2022-09-03T03:30:10.662Z,99.80
2022-09-03T03:32:38.559Z,99.80
2022-09-03T03:35:09.327Z,99.80
2022-09-03T03:37:40.493Z,99.90
2022-09-03T03:40:15.742Z,99.90
2022-09-03T03:42:43.278Z,99.90
2022-09-03T03:45:12.051Z,99.90
2022-09-03T03:47:43.519Z,99.90
2022-09-03T03:50:17.860Z,99.90
2022-09-03T03:52:52.867Z,99.90
2022-09-03T03:55:20.627Z,99.90
2022-09-03T03:57:52.014Z,99.90
2022-09-03T04:00:22.860Z,99.90
2022-09-03T04:03:01.416Z,99.90
2022-09-03T04:05:28.619Z,99.90
2022-09-03T04:08:04.508Z,99.90
2022-09-03T04:10:31.913Z,99.90
2022-09-03T04:13:03.244Z,99.90
2022-09-03T04:15:34.239Z,99.90
2022-09-03T04:18:05.072Z,99.90
2022-09-03T04:20:36.661Z,99.90
2022-09-03T04:23:13.134Z,99.90
2022-09-03T04:25:45.255Z,99.90
2022-09-03T04:28:16.971Z,99.90
2022-09-03T04:30:44.791Z,99.90
2022-09-03T04:33:20.630Z,99.90
2022-09-03T04:35:51.541Z,99.90
2022-09-03T04:38:22.129Z,99.90
2022-09-03T04:41:00.243Z,99.90
2022-09-03T04:43:31.404Z,99.90
2022-09-03T04:46:04.774Z,99.90
2022-09-03T04:48:33.383Z,99.90
2022-09-03T04:51:16.682Z,99.90
2022-09-03T04:53:53.572Z,99.90
2022-09-03T04:56:29.308Z,99.90
2022-09-03T04:59:02.751Z,99.90
2022-09-03T05:01:32.339Z,99.90
2022-09-03T05:04:00.436Z,99.90
2022-09-03T05:06:29.518Z,99.90
2022-09-03T05:08:56.928Z,99.90
2022-09-03T05:11:25.892Z,99.90
2022-09-03T05:13:58.431Z,99.90
2022-09-03T05:16:30.182Z,99.90
2022-09-03T05:19:08.732Z,99.90
2022-09-03T05:21:39.342Z,99.90
2022-09-03T05:24:15.304Z,99.90
2022-09-03T05:26:42.518Z,99.90
2022-09-03T05:29:14.554Z,99.90
2022-09-03T05:31:45.533Z,99.90
2022-09-03T05:34:16.718Z,99.90
2022-09-03T05:36:47.350Z,99.90
2022-09-03T05:39:14.731Z,99.90
2022-09-03T05:41:45.239Z,99.90
2022-09-03T05:44:12.608Z,99.90
2022-09-03T05:46:43.955Z,99.90
2022-09-03T05:49:14.667Z,99.90
2022-09-03T05:51:43.874Z,99.90
2022-09-03T05:54:18.483Z,99.90
2022-09-03T05:56:45.594Z,99.90
2022-09-03T05:59:17.645Z,99.90
2022-09-03T06:01:50.756Z,99.90
2022-09-03T06:04:22.797Z,99.90
2022-09-03T06:07:00.443Z,99.90
2022-09-03T06:09:28.805Z,99.90
2022-09-03T06:12:04.812Z,99.90
2022-09-03T06:14:35.405Z,99.90
2022-09-03T06:17:02.549Z,99.90
2022-09-03T06:19:29.956Z,99.90
2022-09-03T06:22:04.842Z,99.90
2022-09-03T06:24:36.115Z,99.90
2022-09-03T06:27:06.849Z,99.90
2022-09-03T06:29:39.165Z,99.90
2022-09-03T06:32:06.434Z,99.90
2022-09-03T06:34:41.300Z,99.90
2022-09-03T06:37:12.012Z,99.90
2022-09-03T06:39:39.107Z,99.90
2022-09-03T06:42:10.006Z,99.90
2022-09-03T06:44:37.207Z,99.90
2022-09-03T06:47:04.395Z,99.90
2022-09-03T06:49:34.646Z,99.90
2022-09-03T06:52:01.839Z,99.90
2022-09-03T06:54:28.888Z,99.80
2022-09-03T06:56:56.219Z,99.70
2022-09-03T06:59:23.412Z,99.60
2022-09-03T07:01:50.829Z,99.40
2022-09-03T07:04:25.286Z,99.50
2022-09-03T07:06:52.371Z,99.00
2022-09-03T07:09:19.505Z,99.10
2022-09-03T07:11:48.380Z,98.50
2022-09-03T07:14:18.961Z,98.40
2022-09-03T07:16:47.054Z,98.10
2022-09-03T07:19:14.665Z,97.90
2022-09-03T07:21:48.103Z,97.70
2022-09-03T07:24:17.765Z,97.60
2022-09-03T07:26:49.360Z,97.50
2022-09-03T07:29:20.829Z,97.30
2022-09-03T07:31:52.432Z,97.10
2022-09-03T07:34:22.056Z,97.00
2022-09-03T07:36:51.921Z,96.60
2022-09-03T07:39:19.991Z,96.40
2022-09-03T07:41:50.403Z,96.20
2022-09-03T07:44:21.747Z,96.10
2022-09-03T07:46:51.551Z,95.90
2022-09-03T07:49:20.496Z,95.80
2022-09-03T07:51:50.875Z,95.50
2022-09-03T07:54:18.360Z,95.40
2022-09-03T07:56:45.542Z,95.10
2022-09-03T07:59:13.118Z,94.90
2022-09-03T08:01:41.841Z,94.60
2022-09-03T08:04:11.074Z,94.40
2022-09-03T08:06:39.693Z,94.20
2022-09-03T08:09:09.904Z,94.10
2022-09-03T08:11:38.906Z,94.00
2022-09-03T08:14:08.390Z,93.70
2022-09-03T08:16:48.364Z,93.60
2022-09-03T08:19:19.366Z,93.40
2022-09-03T08:21:46.573Z,93.20
2022-09-03T08:24:16.446Z,93.00
2022-09-03T08:26:47.873Z,92.80
2022-09-03T08:29:19.511Z,92.50
2022-09-03T08:31:46.687Z,92.40
2022-09-03T08:34:18.109Z,92.20
2022-09-03T08:36:48.832Z,92.00
2022-09-03T08:39:16.925Z,92.10
2022-09-03T08:42:06.470Z,91.90
2022-09-03T08:45:05.755Z,91.60
2022-09-03T08:48:01.903Z,91.50
2022-09-03T08:50:38.374Z,91.30
2022-09-03T08:53:43.537Z,91.10
2022-09-03T08:56:31.900Z,90.80
2022-09-03T08:59:02.354Z,90.70
2022-09-03T09:01:35.869Z,90.70
2022-09-03T09:04:30.061Z,90.50
2022-09-03T09:07:13.214Z,90.30
2022-09-03T09:09:52.477Z,90.00
2022-09-03T09:12:46.937Z,89.70
2022-09-03T09:15:43.583Z,89.60
2022-09-03T09:18:19.961Z,89.30
2022-09-03T09:21:02.055Z,89.60
2022-09-03T09:23:40.677Z,88.70
2022-09-03T09:26:15.982Z,88.80
2022-09-03T09:28:47.068Z,88.40
2022-09-03T09:31:22.511Z,88.20
2022-09-03T09:33:55.055Z,88.00
2022-09-03T09:36:23.675Z,87.70
2022-09-03T09:38:56.517Z,87.40
2022-09-03T09:41:29.644Z,87.30
2022-09-03T09:44:02.521Z,87.10
2022-09-03T09:46:41.271Z,86.60
2022-09-03T09:49:37.930Z,86.30
2022-09-03T09:52:13.800Z,85.70
2022-09-03T09:54:44.117Z,85.30
2022-09-03T09:57:22.681Z,85.60
2022-09-03T09:59:50.643Z,86.20
2022-09-03T10:02:28.583Z,85.30
2022-09-03T10:05:20.326Z,85.10
2022-09-03T10:07:59.675Z,84.50
2022-09-03T10:10:29.383Z,84.10
2022-09-03T10:13:09.682Z,84.40
2022-09-03T10:15:47.793Z,84.70
2022-09-03T10:18:48.562Z,83.70
2022-09-03T10:21:18.939Z,83.80
2022-09-03T10:24:07.454Z,83.60
2022-09-03T10:26:37.589Z,83.20
2022-09-03T10:29:07.410Z,82.80
2022-09-03T10:32:09.777Z,83.10
2022-09-03T10:35:09.679Z,83.40
2022-09-03T10:38:08.422Z,83.50
2022-09-03T10:41:03.673Z,83.10
2022-09-03T10:43:53.470Z,82.50
2022-09-03T10:46:28.561Z,82.00
2022-09-03T10:49:13.635Z,81.40
2022-09-03T10:51:49.228Z,80.70
2022-09-03T10:54:31.408Z,80.30
2022-09-03T10:57:30.376Z,80.30
2022-09-03T11:00:12.995Z,80.30
2022-09-03T11:03:01.990Z,79.10
2022-09-03T11:05:42.770Z,78.70
2022-09-03T11:08:22.119Z,78.50
2022-09-03T11:10:56.736Z,86.60
2022-09-03T11:14:03.052Z,77.00
2022-09-03T11:16:34.347Z,75.70
2022-09-03T11:19:07.578Z,76.50
2022-09-03T11:21:41.984Z,76.70
2022-09-03T11:24:33.776Z,77.50
2022-09-03T11:27:29.433Z,75.80
2022-09-03T11:30:06.203Z,75.20
2022-09-03T11:32:46.851Z,75.40
2022-09-03T11:35:17.633Z,75.50
2022-09-03T11:38:04.560Z,75.40
2022-09-03T11:41:00.089Z,75.50
2022-09-03T11:43:37.245Z,75.40
2022-09-03T11:46:22.695Z,75.00
2022-09-03T11:49:12.318Z,75.20
2022-09-03T11:51:43.204Z,74.40
2022-09-03T11:54:26.189Z,74.20
2022-09-03T11:57:14.123Z,74.40
2022-09-03T11:59:45.910Z,74.30
2022-09-03T12:02:30.030Z,74.80
2022-09-03T12:04:58.530Z,75.10
2022-09-03T12:07:43.064Z,75.40
2022-09-03T12:10:45.404Z,75.10
2022-09-03T12:13:45.997Z,74.10
2022-09-03T12:16:31.640Z,73.60
2022-09-03T12:19:12.727Z,73.00
2022-09-03T12:21:49.741Z,73.20
2022-09-03T12:24:25.129Z,73.20
2022-09-03T12:26:53.564Z,73.70
2022-09-03T12:29:31.329Z,74.10
2022-09-03T12:32:13.445Z,73.70
2022-09-03T12:34:47.720Z,74.40
2022-09-03T12:40:23.329Z,72.20
2022-09-03T12:42:51.720Z,73.40
2022-09-03T12:45:25.842Z,73.00
2022-09-03T12:47:57.040Z,73.20
2022-09-03T12:50:29.559Z,73.10
2022-09-03T12:53:01.953Z,73.80
2022-09-03T12:55:41.875Z,73.70
2022-09-03T12:58:23.836Z,73.80
2022-09-03T13:01:13.882Z,73.40
2022-09-03T13:03:58.531Z,72.80
2022-09-03T13:06:31.479Z,72.10
2022-09-03T13:09:03.634Z,71.80
2022-09-03T13:11:36.550Z,71.70
2022-09-03T13:14:14.721Z,72.10
2022-09-03T13:17:07.348Z,72.20
2022-09-03T13:19:41.768Z,72.30
2022-09-03T13:22:26.443Z,72.60
2022-09-03T13:25:26.210Z,72.80
2022-09-03T13:28:21.510Z,73.10
2022-09-03T13:31:25.957Z,73.20
2022-09-03T13:34:39.809Z,73.30
2022-09-03T13:37:24.911Z,73.30
2022-09-03T13:40:04.218Z,73.10
2022-09-03T13:42:31.578Z,72.60
2022-09-03T13:45:43.931Z,72.60
2022-09-03T13:48:47.926Z,71.00
2022-09-03T13:51:30.115Z,69.80
2022-09-03T13:54:42.453Z,70.20
2022-09-03T13:57:33.070Z,69.00
2022-09-03T14:00:10.453Z,69.60
2022-09-03T14:02:46.723Z,69.60
2022-09-03T14:05:37.092Z,69.70
2022-09-03T14:08:32.316Z,70.30
2022-09-03T14:11:29.259Z,70.80
2022-09-03T14:14:12.440Z,71.60
2022-09-03T14:16:58.105Z,71.90
2022-09-03T14:19:53.849Z,71.10
2022-09-03T14:22:49.706Z,70.80
2022-09-03T14:25:22.839Z,71.20
2022-09-03T14:27:56.363Z,71.60
2022-09-03T14:30:59.321Z,72.40
2022-09-03T14:33:56.751Z,73.50
2022-09-03T14:36:50.401Z,74.10
2022-09-03T14:39:39.856Z,73.70
2022-09-03T14:42:11.317Z,73.20
2022-09-03T14:45:03.102Z,72.60
2022-09-03T14:47:45.270Z,72.50
2022-09-03T14:50:49.322Z,72.20
2022-09-03T14:53:51.352Z,71.40
2022-09-03T14:56:28.718Z,71.20
2022-09-03T14:59:17.442Z,71.10
2022-09-03T15:01:50.831Z,71.30
2022-09-03T15:04:39.522Z,70.90
2022-09-03T15:07:27.975Z,70.10
2022-09-03T15:10:08.473Z,69.00
2022-09-03T15:12:46.724Z,68.60
2022-09-03T15:15:47.138Z,68.60
2022-09-03T15:18:23.024Z,68.90
2022-09-03T15:20:51.710Z,68.90
2022-09-03T15:23:30.317Z,69.50
2022-09-03T15:26:32.902Z,70.40
2022-09-03T15:29:24.534Z,70.00
2022-09-03T15:32:14.031Z,69.80
2022-09-03T15:35:05.039Z,69.30
2022-09-03T15:37:55.601Z,68.60
2022-09-03T15:40:52.255Z,69.20
2022-09-03T15:43:31.963Z,69.80
2022-09-03T15:46:30.260Z,71.00
2022-09-03T15:49:26.367Z,72.00
2022-09-03T15:52:22.774Z,71.80
2022-09-03T15:55:24.354Z,71.20
2022-09-03T15:58:13.611Z,72.10
2022-09-03T16:01:04.150Z,71.60
2022-09-03T16:03:52.167Z,71.30
2022-09-03T16:06:25.693Z,73.10
2022-09-03T16:09:06.431Z,71.80
2022-09-03T16:11:47.301Z,71.20
2022-09-03T16:14:28.958Z,71.00
2022-09-03T16:17:28.928Z,71.90
2022-09-03T16:20:08.075Z,71.50
2022-09-03T16:23:06.911Z,72.00
2022-09-03T16:26:39.111Z,73.20
2022-09-03T16:29:26.347Z,74.10
2022-09-03T16:32:21.455Z,74.50
2022-09-03T16:35:14.829Z,75.70
2022-09-03T16:38:15.097Z,75.80
2022-09-03T16:40:55.188Z,76.10
2022-09-03T16:43:42.813Z,76.50
2022-09-03T16:46:59.503Z,77.00
2022-09-03T16:49:45.893Z,77.70
2022-09-03T16:52:39.450Z,77.40
2022-09-03T16:55:19.907Z,78.50
2022-09-03T16:58:08.413Z,78.70
2022-09-03T17:00:47.545Z,79.20
2022-09-03T17:03:26.102Z,79.40
2022-09-03T17:06:18.194Z,80.70
2022-09-03T17:08:51.407Z,82.00
2022-09-03T17:11:49.502Z,82.60
2022-09-03T17:15:00.914Z,82.20
2022-09-03T17:17:56.747Z,81.50
2022-09-03T17:20:57.983Z,81.60
2022-09-03T17:23:38.400Z,79.70
2022-09-03T17:26:30.324Z,79.40
2022-09-03T17:28:59.043Z,79.80
2022-09-03T17:31:37.022Z,80.20
2022-09-03T17:34:20.085Z,80.70
2022-09-03T17:37:06.247Z,81.70
2022-09-03T17:40:11.696Z,82.20
2022-09-03T17:43:17.120Z,81.60
2022-09-03T17:45:57.937Z,82.00
2022-09-03T17:49:03.450Z,82.80
2022-09-03T17:51:37.776Z,83.30
2022-09-03T17:54:21.520Z,83.10
2022-09-03T17:57:03.687Z,84.00
2022-09-03T17:59:41.465Z,84.40
2022-09-03T18:02:34.561Z,84.70
2022-09-03T18:05:19.499Z,85.50
2022-09-03T18:08:12.630Z,85.90
2022-09-03T18:11:17.416Z,86.20
2022-09-03T18:14:21.137Z,86.70
2022-09-03T18:16:55.386Z,87.10
2022-09-03T18:20:23.883Z,86.90
2022-09-03T18:23:14.054Z,87.50
2022-09-03T18:26:28.408Z,87.70
2022-09-03T18:29:59.235Z,88.10
2022-09-03T18:32:49.025Z,88.80
2022-09-03T18:35:35.524Z,88.40
2022-09-03T18:38:23.403Z,88.80
2022-09-03T18:41:19.830Z,89.30
2022-09-03T18:44:11.932Z,89.80
2022-09-03T18:50:43.819Z,90.40
2022-09-03T18:53:48.541Z,90.50
2022-09-03T18:56:59.456Z,90.70
2022-09-03T19:00:12.578Z,90.90
2022-09-03T19:03:38.605Z,91.00
2022-09-03T19:06:50.965Z,91.10
2022-09-03T19:09:46.932Z,91.30
2022-09-03T19:12:51.777Z,91.20
2022-09-03T19:16:02.661Z,91.50
2022-09-03T19:18:56.779Z,91.50
2022-09-03T19:22:11.005Z,91.80
2022-09-03T19:25:01.052Z,92.10
2022-09-03T19:28:00.292Z,91.90
2022-09-03T19:31:16.244Z,92.10
2022-09-03T19:34:40.409Z,92.50
2022-09-03T19:37:43.488Z,92.50
2022-09-03T19:41:12.233Z,92.60
2022-09-03T19:44:22.970Z,92.80
2022-09-03T19:47:17.848Z,92.60
2022-09-03T19:50:52.844Z,92.70
2022-09-03T19:53:44.227Z,93.10
2022-09-03T19:56:47.072Z,93.00
2022-09-03T19:59:48.936Z,93.20
2022-09-03T20:02:34.588Z,93.70
2022-09-03T20:05:22.115Z,93.40
2022-09-03T20:08:13.178Z,93.10
2022-09-03T20:10:43.605Z,93.40
2022-09-03T20:13:18.864Z,93.60
2022-09-03T20:16:14.492Z,93.70
2022-09-03T20:18:48.472Z,94.00
2022-09-03T20:21:27.564Z,94.10
2022-09-03T20:24:32.957Z,94.10
2022-09-03T20:27:07.349Z,94.50
2022-09-03T20:30:08.929Z,94.40
2022-09-03T20:33:01.111Z,94.60
2022-09-03T20:35:45.607Z,94.60
2022-09-03T20:38:46.443Z,94.60
2022-09-03T20:41:29.280Z,94.80
2022-09-03T20:44:25.996Z,94.80
2022-09-03T20:47:05.490Z,95.00
2022-09-03T20:49:40.794Z,95.10
2022-09-03T20:52:26.891Z,95.10
2022-09-03T20:55:20.608Z,95.30
2022-09-03T20:58:03.362Z,95.20
2022-09-03T21:00:56.557Z,95.30
2022-09-03T21:03:48.643Z,95.30
2022-09-03T21:06:32.052Z,95.40
2022-09-03T21:09:25.236Z,95.40
2022-09-03T21:12:23.145Z,95.50
2022-09-03T21:15:02.450Z,95.60
2022-09-03T21:17:54.093Z,95.60
2022-09-03T21:20:35.832Z,95.80
2022-09-03T21:23:03.844Z,95.90
2022-09-03T21:25:40.002Z,95.90
2022-09-03T21:28:28.427Z,96.00
2022-09-03T21:31:02.078Z,96.10
2022-09-03T21:33:35.733Z,96.20
2022-09-03T21:36:37.765Z,96.20
2022-09-03T21:39:43.901Z,96.40
2022-09-03T21:42:36.769Z,96.30
2022-09-03T21:45:10.209Z,96.40
2022-09-03T21:47:59.098Z,96.30
2022-09-03T21:50:46.322Z,96.60
2022-09-03T21:53:19.296Z,96.70
2022-09-03T21:56:27.566Z,96.60
2022-09-03T21:59:34.818Z,96.80
2022-09-03T22:02:27.402Z,96.80
2022-09-03T22:04:58.345Z,96.70
2022-09-03T22:07:53.770Z,96.70
2022-09-03T22:10:33.370Z,96.90
2022-09-03T22:13:29.636Z,96.90
2022-09-03T22:16:23.722Z,97.20
2022-09-03T22:18:58.703Z,97.10
2022-09-03T22:22:03.615Z,97.10
2022-09-03T22:24:58.891Z,97.30
2022-09-03T22:28:07.862Z,97.30
2022-09-03T22:30:59.605Z,97.30
2022-09-03T22:33:29.369Z,97.30
2022-09-03T22:36:15.349Z,97.10
2022-09-03T22:38:57.629Z,97.00
2022-09-03T22:41:49.957Z,97.10
2022-09-03T22:44:36.708Z,97.40
2022-09-03T22:47:07.435Z,97.40
2022-09-03T22:49:51.647Z,97.40
2022-09-03T22:52:40.679Z,97.60
2022-09-03T22:55:23.699Z,97.80
2022-09-03T22:58:07.280Z,97.70
2022-09-03T23:01:00.392Z,97.80
2022-09-03T23:03:50.177Z,97.90
2022-09-03T23:06:33.821Z,98.00
2022-09-03T23:09:07.875Z,98.40
2022-09-03T23:11:47.851Z,98.10
2022-09-03T23:14:29.672Z,98.20
2022-09-03T23:17:06.386Z,98.20
2022-09-03T23:19:41.082Z,98.20
2022-09-03T23:22:24.647Z,98.10
2022-09-03T23:25:08.482Z,98.20
2022-09-03T23:27:46.127Z,98.30
2022-09-03T23:30:16.932Z,98.20
2022-09-03T23:32:51.140Z,98.30
2022-09-03T23:35:18.609Z,98.40
2022-09-03T23:38:30.509Z,98.40
2022-09-03T23:41:07.948Z,98.50
2022-09-03T23:43:58.512Z,98.50
2022-09-03T23:46:34.856Z,98.60
2022-09-03T23:49:22.220Z,98.60
2022-09-03T23:52:15.922Z,98.60
2022-09-03T23:54:57.681Z,98.70
2022-09-03T23:57:40.672Z,98.70
